Time;durP1;ratioP1;P1;durP2;ratioP2;P2;SDS_P1;SDS_P2;PMS_P1;PMS_P2;Temp;Humidity;BMP_temperature;BMP_pressure;BME280_temperature;BME280_humidity;BME280_pressure;Samples;Min_cycle;Max_cycle;Signal;HPM_P1;HPM_P2
2023/04/15 00:00:03;;;;;;;6.83;6.17;;;8.10;99.90;;;;;;5100016;28;20537;-82
2023/04/15 00:02:32;;;;;;;6.70;6.23;;;8.00;99.90;;;;;;5101320;28;20470;-83
2023/04/15 00:05:00;;;;;;;5.87;5.50;;;8.10;99.90;;;;;;5095649;28;20464;-83
2023/04/15 00:07:28;;;;;;;6.17;5.77;;;8.00;99.90;;;;;;5100398;28;20489;-80
2023/04/15 00:09:56;;;;;;;6.37;5.90;;;8.00;99.90;;;;;;5100403;28;20429;-84
2023/04/15 00:12:25;;;;;;;8.10;6.97;;;8.00;99.90;;;;;;5101965;28;20839;-80
2023/04/15 00:14:53;;;;;;;6.67;6.07;;;8.00;99.90;;;;;;5099662;28;20466;-80
2023/04/15 00:17:22;;;;;;;6.70;6.00;;;8.00;99.90;;;;;;5098764;28;21106;-82
2023/04/15 00:19:51;;;;;;;7.70;6.10;;;7.90;99.90;;;;;;5076596;28;20504;-82
2023/04/15 00:22:19;;;;;;;7.93;7.20;;;7.90;99.90;;;;;;5079126;28;20460;-83
2023/04/15 00:24:47;;;;;;;7.50;6.87;;;7.90;99.90;;;;;;5095827;28;24588;-83
2023/04/15 00:27:15;;;;;;;7.50;6.90;;;7.90;99.90;;;;;;5099462;28;21070;-81
2023/04/15 00:29:43;;;;;;;8.37;7.10;;;7.80;99.90;;;;;;5098567;28;20992;-80
2023/04/15 00:32:12;;;;;;;7.50;6.90;;;7.80;99.90;;;;;;5081442;28;20516;-81
2023/04/15 00:34:41;;;;;;;6.33;5.83;;;7.70;99.90;;;;;;5095811;28;20456;-80
2023/04/15 00:37:10;;;;;;;10.10;6.80;;;7.80;99.90;;;;;;5098126;28;20537;-85
2023/04/15 00:39:38;;;;;;;7.27;6.63;;;7.80;99.90;;;;;;5094727;28;20465;-79
2023/04/15 00:42:06;;;;;;;7.83;7.03;;;7.70;99.90;;;;;;5097629;28;20451;-78
2023/04/15 00:44:34;;;;;;;7.60;7.00;;;7.60;99.90;;;;;;5098408;28;20855;-82
2023/04/15 00:47:04;;;;;;;8.33;7.73;;;7.50;99.90;;;;;;5100217;28;20475;-81
2023/04/15 00:49:33;;;;;;;7.87;7.20;;;7.50;99.90;;;;;;5098433;28;20467;-83
2023/04/15 00:52:03;;;;;;;7.10;6.70;;;7.60;99.90;;;;;;5099108;28;20453;-79
2023/04/15 00:54:31;;;;;;;7.73;7.03;;;7.60;99.90;;;;;;5084673;28;20471;-81
2023/04/15 00:56:59;;;;;;;7.30;6.80;;;7.50;99.90;;;;;;5101784;28;20486;-80
2023/04/15 00:59:28;;;;;;;7.70;7.10;;;7.50;99.90;;;;;;5096854;28;20586;-82
2023/04/15 01:01:56;;;;;;;7.50;6.90;;;7.40;99.90;;;;;;5095425;28;21045;-80
2023/04/15 01:04:26;;;;;;;8.10;7.43;;;7.40;99.90;;;;;;5098251;27;20527;-80
2023/04/15 01:06:54;;;;;;;12.57;11.27;;;7.30;99.90;;;;;;5094194;27;20541;-81
2023/04/15 01:09:24;;;;;;;11.40;10.10;;;7.30;99.90;;;;;;5098630;27;20535;-79
2023/04/15 01:11:52;;;;;;;10.63;9.70;;;7.30;99.90;;;;;;5102611;28;20444;-79
2023/04/15 01:14:21;;;;;;;9.50;8.60;;;7.30;99.90;;;;;;5100786;28;20467;-81
2023/04/15 01:16:49;;;;;;;8.60;8.00;;;7.30;99.90;;;;;;5104910;27;20532;-84
2023/04/15 01:19:18;;;;;;;8.90;8.30;;;7.30;99.90;;;;;;5097024;28;20479;-82
2023/04/15 01:21:46;;;;;;;8.77;8.07;;;7.30;99.90;;;;;;5086689;28;20857;-80
2023/04/15 01:24:17;;;;;;;8.60;8.10;;;7.20;99.90;;;;;;5102126;27;20449;-81
2023/04/15 01:26:48;;;;;;;9.10;8.30;;;7.20;99.90;;;;;;5087462;28;20979;-80
2023/04/15 01:29:17;;;;;;;6.90;6.40;;;7.20;99.90;;;;;;5102535;28;20446;-82
2023/04/15 01:31:51;;;;;;;8.20;7.47;;;7.20;99.90;;;;;;5084019;28;20529;-83
2023/04/15 01:34:20;;;;;;;7.43;6.77;;;7.20;99.90;;;;;;5102701;28;20549;-81
2023/04/15 01:36:48;;;;;;;7.80;7.10;;;7.20;99.90;;;;;;5084647;28;20474;-80
2023/04/15 01:39:16;;;;;;;6.87;6.10;;;7.10;99.90;;;;;;5101998;27;20525;-81
2023/04/15 01:41:44;;;;;;;7.30;6.70;;;7.10;99.90;;;;;;5100894;28;20460;-83
2023/04/15 01:44:14;;;;;;;7.20;6.43;;;7.00;99.90;;;;;;5079926;28;20531;-79
2023/04/15 01:46:42;;;;;;;6.70;6.30;;;7.00;99.90;;;;;;5098569;28;20484;-79
2023/04/15 01:49:11;;;;;;;7.53;6.83;;;7.00;99.90;;;;;;5081990;28;20551;-80
2023/04/15 01:51:39;;;;;;;6.43;5.93;;;7.00;99.90;;;;;;5104026;27;20504;-79
2023/04/15 01:54:07;;;;;;;6.63;6.13;;;7.00;99.90;;;;;;5099741;27;20474;-79
2023/04/15 01:56:35;;;;;;;7.93;7.43;;;7.00;99.90;;;;;;5099421;28;21220;-85
2023/04/15 01:59:03;;;;;;;7.10;6.60;;;7.00;99.90;;;;;;5100651;28;20474;-80
2023/04/15 02:01:33;;;;;;;7.17;6.67;;;6.90;99.90;;;;;;5097602;28;20545;-80
2023/04/15 02:04:01;;;;;;;6.83;6.43;;;6.80;99.90;;;;;;5099240;27;20461;-80
2023/04/15 02:06:29;;;;;;;7.20;6.60;;;6.90;99.90;;;;;;5101519;27;21228;-79
2023/04/15 02:08:58;;;;;;;7.77;6.90;;;6.80;99.90;;;;;;5099874;27;20470;-82
2023/04/15 02:11:27;;;;;;;7.30;6.80;;;6.80;99.90;;;;;;5102071;28;20445;-79
2023/04/15 02:13:55;;;;;;;7.10;6.57;;;6.80;99.90;;;;;;5102296;28;20447;-82
2023/04/15 02:16:23;;;;;;;7.90;7.40;;;6.90;99.90;;;;;;5102547;28;20468;-83
2023/04/15 02:18:53;;;;;;;7.23;6.63;;;6.80;99.90;;;;;;5089625;28;20600;-80
2023/04/15 02:21:21;;;;;;;7.80;7.33;;;6.80;99.90;;;;;;5101312;28;20494;-83
2023/04/15 02:23:50;;;;;;;6.63;6.23;;;6.70;99.90;;;;;;5108761;28;20502;-83
2023/04/15 02:26:21;;;;;;;7.47;6.90;;;6.70;99.90;;;;;;5103170;28;20480;-83
2023/04/15 02:28:50;;;;;;;6.80;6.40;;;6.80;99.90;;;;;;5106703;28;20514;-85
2023/04/15 02:31:18;;;;;;;6.87;6.37;;;6.80;99.90;;;;;;5089289;28;20469;-81
2023/04/15 02:33:46;;;;;;;6.70;6.40;;;6.70;99.90;;;;;;5093212;28;20454;-82
2023/04/15 02:36:16;;;;;;;7.10;6.60;;;6.70;99.90;;;;;;5088398;28;21170;-83
2023/04/15 02:38:44;;;;;;;7.20;6.70;;;6.60;99.90;;;;;;5105030;27;20958;-83
2023/04/15 02:41:13;;;;;;;6.20;5.90;;;6.60;99.90;;;;;;5106526;28;20490;-81
2023/04/15 02:43:41;;;;;;;6.87;6.37;;;6.60;99.90;;;;;;5106068;28;20453;-81
2023/04/15 02:46:13;;;;;;;8.87;6.20;;;6.60;99.90;;;;;;5103583;27;20466;-81
2023/04/15 02:48:41;;;;;;;7.80;7.00;;;6.60;99.90;;;;;;5103056;28;21245;-86
2023/04/15 02:51:14;;;;;;;6.23;5.63;;;6.50;99.90;;;;;;5105084;27;20444;-83
2023/04/15 02:53:43;;;;;;;6.60;6.10;;;6.50;99.90;;;;;;5104218;27;20542;-84
2023/04/15 02:56:13;;;;;;;6.73;6.13;;;6.60;99.90;;;;;;5086367;28;20505;-83
2023/04/15 02:58:42;;;;;;;6.50;6.00;;;6.60;99.90;;;;;;5083041;28;20490;-83
2023/04/15 03:01:10;;;;;;;6.83;6.30;;;6.60;99.90;;;;;;5102985;27;20492;-83
2023/04/15 03:03:38;;;;;;;6.83;6.33;;;6.50;99.90;;;;;;5104621;28;20533;-85
2023/04/15 03:06:07;;;;;;;6.80;6.00;;;6.40;99.90;;;;;;5087936;28;20518;-83
2023/04/15 03:08:36;;;;;;;6.73;6.33;;;6.30;99.90;;;;;;5101527;28;20504;-83
2023/04/15 03:11:06;;;;;;;6.80;6.33;;;6.30;99.90;;;;;;5102669;27;20745;-83
2023/04/15 03:13:35;;;;;;;7.17;6.57;;;6.30;99.90;;;;;;5103767;28;20447;-82
2023/04/15 03:16:03;;;;;;;7.37;6.70;;;6.30;99.90;;;;;;5102800;28;20474;-84
2023/04/15 03:18:31;;;;;;;6.70;6.30;;;6.30;99.90;;;;;;5102299;28;20487;-81
2023/04/15 03:20:59;;;;;;;7.83;7.03;;;6.40;99.90;;;;;;5100276;27;20605;-82
2023/04/15 03:23:28;;;;;;;8.73;7.90;;;6.40;99.90;;;;;;5102480;28;20440;-80
2023/04/15 03:25:56;;;;;;;15.83;8.77;;;6.40;99.90;;;;;;5098686;28;20481;-82
2023/04/15 03:28:26;;;;;;;9.23;8.30;;;6.50;99.90;;;;;;5097383;28;20570;-83
2023/04/15 03:30:54;;;;;;;10.10;7.90;;;6.40;99.90;;;;;;5097172;28;20443;-82
2023/04/15 03:33:22;;;;;;;9.87;8.30;;;6.30;99.90;;;;;;5097103;28;20510;-81
2023/04/15 03:35:51;;;;;;;8.73;7.73;;;6.30;99.90;;;;;;5105496;28;22351;-81
2023/04/15 03:38:19;;;;;;;7.90;7.10;;;6.30;99.90;;;;;;5103358;28;20463;-84
2023/04/15 03:40:48;;;;;;;7.13;6.63;;;6.20;99.90;;;;;;5095389;28;20485;-80
2023/04/15 03:43:16;;;;;;;7.50;6.90;;;6.20;99.90;;;;;;5077401;28;20477;-80
2023/04/15 03:45:45;;;;;;;7.30;6.90;;;6.20;99.90;;;;;;5095961;28;20476;-80
2023/04/15 03:48:13;;;;;;;8.23;7.40;;;6.30;99.90;;;;;;5092975;28;20458;-80
2023/04/15 03:50:45;;;;;;;6.90;6.50;;;6.20;99.90;;;;;;5094629;28;20463;-79
2023/04/15 03:53:13;;;;;;;7.57;6.87;;;6.20;99.90;;;;;;5093115;28;20459;-79
2023/04/15 03:55:41;;;;;;;7.73;7.00;;;6.20;99.90;;;;;;5093705;28;20466;-82
2023/04/15 03:58:11;;;;;;;9.53;6.73;;;6.30;99.90;;;;;;5098847;28;20482;-82
2023/04/15 04:00:40;;;;;;;6.87;6.23;;;6.30;99.90;;;;;;5094054;28;20522;-81
2023/04/15 04:03:10;;;;;;;8.13;7.07;;;6.20;99.90;;;;;;5096048;28;20443;-80
2023/04/15 04:05:40;;;;;;;7.20;6.70;;;6.10;99.90;;;;;;5084180;28;20517;-81
2023/04/15 04:08:08;;;;;;;7.03;6.53;;;6.00;99.90;;;;;;5099315;28;20468;-84
2023/04/15 04:10:36;;;;;;;6.50;6.03;;;6.00;99.90;;;;;;5096867;28;20477;-80
2023/04/15 04:13:04;;;;;;;7.03;6.63;;;6.10;99.90;;;;;;5092478;28;21968;-83
2023/04/15 04:15:33;;;;;;;6.67;6.27;;;6.20;99.90;;;;;;5097085;28;20474;-79
2023/04/15 04:18:01;;;;;;;6.10;5.80;;;6.10;99.90;;;;;;5097589;28;20454;-81
2023/04/15 04:20:31;;;;;;;6.70;6.40;;;6.20;99.90;;;;;;5093282;28;20473;-79
2023/04/15 04:23:00;;;;;;;7.20;6.70;;;6.10;99.90;;;;;;5103852;28;20467;-80
2023/04/15 04:25:28;;;;;;;6.70;6.30;;;6.10;99.90;;;;;;5103293;28;20460;-82
2023/04/15 04:27:56;;;;;;;6.60;6.00;;;6.00;99.90;;;;;;5102711;28;20779;-78
2023/04/15 04:30:24;;;;;;;6.20;5.80;;;6.00;99.90;;;;;;5101651;28;21835;-80
2023/04/15 04:32:52;;;;;;;5.90;5.53;;;6.00;99.90;;;;;;5100997;28;20455;-80
2023/04/15 04:35:21;;;;;;;6.80;6.40;;;6.00;99.90;;;;;;5104852;28;20448;-83
2023/04/15 04:37:51;;;;;;;6.60;6.30;;;5.90;99.90;;;;;;5100008;27;20461;-81
2023/04/15 04:40:19;;;;;;;6.80;6.50;;;5.90;99.90;;;;;;5101830;27;21034;-83
2023/04/15 04:42:47;;;;;;;6.70;6.20;;;6.00;99.90;;;;;;5105329;27;20456;-82
2023/04/15 04:45:16;;;;;;;8.23;6.47;;;6.00;99.90;;;;;;5107587;27;20488;-80
2023/04/15 04:47:44;;;;;;;5.80;5.50;;;6.00;99.90;;;;;;5101225;28;20543;-80
2023/04/15 04:50:12;;;;;;;6.03;5.83;;;6.00;99.90;;;;;;5087591;28;20467;-80
2023/04/15 04:52:40;;;;;;;6.73;6.43;;;6.00;99.90;;;;;;5103154;28;20530;-80
2023/04/15 04:55:10;;;;;;;6.20;5.80;;;6.00;99.90;;;;;;5109154;28;20450;-80
2023/04/15 04:57:39;;;;;;;6.93;6.40;;;5.90;99.90;;;;;;5104728;28;20474;-80
2023/04/15 05:00:08;;;;;;;6.80;6.30;;;6.00;99.90;;;;;;5109910;28;20443;-82
2023/04/15 05:02:37;;;;;;;7.10;6.70;;;6.00;99.90;;;;;;5107244;28;20472;-79
2023/04/15 05:05:06;;;;;;;7.53;7.03;;;6.00;99.90;;;;;;5105546;28;20537;-80
2023/04/15 05:07:35;;;;;;;6.60;6.30;;;6.00;99.90;;;;;;5089585;28;20516;-80
2023/04/15 05:10:03;;;;;;;7.43;6.93;;;6.00;99.90;;;;;;5086063;28;20452;-80
2023/04/15 05:12:33;;;;;;;7.10;6.70;;;6.00;99.90;;;;;;5103933;28;20450;-83
2023/04/15 05:15:01;;;;;;;6.73;6.50;;;6.00;99.90;;;;;;5105386;28;20454;-80
2023/04/15 05:17:30;;;;;;;6.63;6.43;;;6.00;99.90;;;;;;5105276;28;20474;-81
2023/04/15 05:19:59;;;;;;;7.20;6.80;;;6.10;99.90;;;;;;5099428;27;20468;-80
2023/04/15 05:22:27;;;;;;;7.37;6.93;;;6.00;99.90;;;;;;5083753;28;20526;-81
2023/04/15 05:24:55;;;;;;;8.17;7.40;;;6.00;99.90;;;;;;5100822;28;20505;-81
2023/04/15 05:27:23;;;;;;;7.50;7.10;;;6.00;99.90;;;;;;5084746;28;20482;-80
2023/04/15 05:29:53;;;;;;;7.77;7.20;;;6.10;99.90;;;;;;5100648;28;20449;-81
2023/04/15 05:32:21;;;;;;;7.10;6.80;;;6.00;99.90;;;;;;5107536;28;20452;-81
2023/04/15 05:34:49;;;;;;;8.13;7.63;;;6.00;99.90;;;;;;5103593;28;20447;-81
2023/04/15 05:37:19;;;;;;;7.40;6.90;;;6.00;99.90;;;;;;5104829;28;20467;-80
2023/04/15 05:39:47;;;;;;;8.00;7.50;;;6.10;99.90;;;;;;5100374;28;20454;-81
2023/04/15 05:42:16;;;;;;;6.70;6.17;;;6.10;99.90;;;;;;5098776;28;20474;-80
2023/04/15 05:44:44;;;;;;;7.43;7.00;;;6.20;99.90;;;;;;5101945;28;20484;-80
2023/04/15 05:47:14;;;;;;;8.20;7.60;;;6.20;99.90;;;;;;5083229;28;20459;-81
2023/04/15 05:49:42;;;;;;;7.73;7.30;;;6.30;99.90;;;;;;5103271;27;20540;-79
2023/04/15 05:52:10;;;;;;;7.60;7.10;;;6.30;99.90;;;;;;5103349;28;20820;-78
2023/04/15 05:54:38;;;;;;;7.43;7.10;;;6.30;99.90;;;;;;5103201;28;20515;-81
2023/04/15 05:57:07;;;;;;;7.87;7.40;;;6.40;99.90;;;;;;5101911;28;20478;-82
2023/04/15 05:59:35;;;;;;;7.77;7.37;;;6.50;99.90;;;;;;5098746;28;20553;-80
2023/04/15 06:02:03;;;;;;;9.20;8.33;;;6.60;99.90;;;;;;5100229;28;20506;-79
2023/04/15 06:04:33;;;;;;;9.70;9.10;;;6.70;99.90;;;;;;5103476;28;20529;-80
2023/04/15 06:07:01;;;;;;;9.83;9.23;;;6.80;99.90;;;;;;5107132;28;20507;-82
2023/04/15 06:09:29;;;;;;;8.97;8.37;;;6.90;99.90;;;;;;5108518;28;20456;-83
2023/04/15 06:11:58;;;;;;;10.70;9.80;;;7.00;99.90;;;;;;5101440;28;20451;-79
2023/04/15 06:14:26;;;;;;;9.17;8.57;;;7.00;99.90;;;;;;5102924;28;20997;-80
2023/04/15 06:16:55;;;;;;;7.90;7.43;;;7.20;99.90;;;;;;5103373;28;20500;-81
2023/04/15 06:19:23;;;;;;;8.03;7.50;;;7.30;99.90;;;;;;5102529;28;20447;-80
2023/04/15 06:21:52;;;;;;;8.10;7.73;;;7.40;99.90;;;;;;5098233;28;20569;-79
2023/04/15 06:24:21;;;;;;;8.27;7.77;;;7.50;99.90;;;;;;5102273;27;20460;-81
2023/04/15 06:26:49;;;;;;;8.00;7.60;;;7.70;99.90;;;;;;5101506;28;20524;-79
2023/04/15 06:29:17;;;;;;;7.90;7.50;;;7.80;99.90;;;;;;5101844;28;20461;-79
2023/04/15 06:31:48;;;;;;;9.27;8.60;;;8.10;99.90;;;;;;5095654;28;20463;-80
2023/04/15 06:34:16;;;;;;;8.17;7.40;;;8.20;99.90;;;;;;5096147;28;20552;-80
2023/04/15 06:36:44;;;;;;;7.80;7.50;;;8.30;99.90;;;;;;5097894;27;20468;-80
2023/04/15 06:39:13;;;;;;;8.27;7.67;;;8.50;99.90;;;;;;5096620;27;20456;-79
2023/04/15 06:41:42;;;;;;;7.90;7.50;;;8.60;99.90;;;;;;5100386;28;20483;-79
2023/04/15 06:44:10;;;;;;;8.57;7.60;;;8.90;99.90;;;;;;5084360;28;20453;-79
2023/04/15 06:46:38;;;;;;;8.10;7.70;;;9.00;99.90;;;;;;5099385;28;20487;-79
2023/04/15 06:49:07;;;;;;;8.20;7.70;;;9.20;99.90;;;;;;5082616;28;20457;-80
2023/04/15 06:51:35;;;;;;;9.30;8.70;;;9.40;99.90;;;;;;5094315;28;20456;-78
2023/04/15 06:54:05;;;;;;;8.43;7.93;;;9.50;99.90;;;;;;5097425;28;20445;-82
2023/04/15 06:56:35;;;;;;;9.30;8.77;;;9.50;99.90;;;;;;5101247;28;20516;-78
2023/04/15 06:59:07;;;;;;;9.00;8.17;;;9.70;99.90;;;;;;5098830;28;20881;-78
2023/04/15 07:01:35;;;;;;;10.70;9.67;;;9.70;99.90;;;;;;5095454;28;20454;-80
2023/04/15 07:04:04;;;;;;;8.63;8.13;;;9.90;99.90;;;;;;5098131;28;20498;-81
2023/04/15 07:06:32;;;;;;;7.80;7.50;;;10.10;99.90;;;;;;5101866;28;20995;-81
2023/04/15 07:09:01;;;;;;;9.70;8.90;;;10.20;99.90;;;;;;5102367;28;20449;-79
2023/04/15 07:11:30;;;;;;;8.07;7.67;;;10.30;99.90;;;;;;5104523;27;20482;-85
2023/04/15 07:14:00;;;;;;;9.00;8.40;;;10.40;99.90;;;;;;5084172;28;21028;-79
2023/04/15 07:16:29;;;;;;;8.53;8.03;;;10.50;99.90;;;;;;5093273;28;20227;-80
2023/04/15 07:18:58;;;;;;;8.03;7.63;;;10.70;99.90;;;;;;5081386;28;20454;-80
2023/04/15 07:21:26;;;;;;;8.10;7.43;;;10.80;99.90;;;;;;5095138;28;20447;-78
2023/04/15 07:23:54;;;;;;;7.97;7.47;;;11.00;99.90;;;;;;5092644;28;20582;-80
2023/04/15 07:26:23;;;;;;;8.70;8.13;;;11.10;99.90;;;;;;5091143;28;21280;-81
2023/04/15 07:28:51;;;;;;;8.07;7.77;;;11.20;99.90;;;;;;5088304;28;21374;-80
2023/04/15 07:31:21;;;;;;;8.20;7.80;;;11.20;99.90;;;;;;5088492;28;20457;-79
2023/04/15 07:33:49;;;;;;;7.90;7.47;;;11.10;99.90;;;;;;5086397;28;20478;-81
2023/04/15 07:36:17;;;;;;;8.17;7.67;;;11.20;99.90;;;;;;5093616;28;21101;-81
2023/04/15 07:38:45;;;;;;;8.83;7.97;;;11.30;99.90;;;;;;5088848;28;20452;-80
2023/04/15 07:41:14;;;;;;;8.87;8.33;;;11.40;99.90;;;;;;5086378;28;20462;-79
2023/04/15 07:43:43;;;;;;;8.27;7.50;;;11.40;99.90;;;;;;5090263;28;20503;-80
2023/04/15 07:46:11;;;;;;;7.77;7.33;;;11.40;99.90;;;;;;5083629;28;20482;-80
2023/04/15 07:48:41;;;;;;;8.30;7.80;;;11.60;99.90;;;;;;5088544;28;20436;-80
2023/04/15 07:51:11;;;;;;;8.70;8.20;;;11.70;99.90;;;;;;5089514;28;20531;-77
2023/04/15 07:53:39;;;;;;;8.63;7.93;;;11.70;99.90;;;;;;5090258;28;20476;-81
2023/04/15 07:56:08;;;;;;;8.23;7.60;;;11.90;99.90;;;;;;5097711;28;20490;-80
2023/04/15 07:58:36;;;;;;;8.20;7.60;;;11.90;99.90;;;;;;5092037;28;20463;-82
2023/04/15 08:01:05;;;;;;;8.97;8.27;;;12.00;99.90;;;;;;5091390;28;20457;-83
2023/04/15 08:03:33;;;;;;;8.50;8.00;;;12.00;99.90;;;;;;5095626;28;20470;-76
2023/04/15 08:06:03;;;;;;;7.30;7.00;;;12.00;99.90;;;;;;5093022;28;20545;-82
2023/04/15 08:08:32;;;;;;;8.67;7.97;;;12.10;99.90;;;;;;5097941;28;20456;-82
2023/04/15 08:11:00;;;;;;;8.73;8.00;;;12.20;99.90;;;;;;5081157;28;20452;-82
2023/04/15 08:13:28;;;;;;;8.63;7.93;;;12.40;99.90;;;;;;5095187;28;20449;-80
2023/04/15 08:16:18;;;;;;;8.87;8.07;;;12.50;99.90;;;;;;5096825;27;20467;-81
2023/04/15 08:18:46;;;;;;;7.70;7.50;;;12.50;99.90;;;;;;5098007;27;20490;-81
2023/04/15 08:21:16;;;;;;;8.10;7.80;;;12.60;99.90;;;;;;5100156;28;20486;-79
2023/04/15 08:23:45;;;;;;;8.43;7.60;;;12.70;99.90;;;;;;5080952;28;20542;-81
2023/04/15 08:26:13;;;;;;;8.70;7.97;;;12.80;99.90;;;;;;5096984;28;20474;-80
2023/04/15 08:28:42;;;;;;;7.60;7.30;;;12.90;99.90;;;;;;5100569;28;20492;-82
2023/04/15 08:31:10;;;;;;;7.90;7.60;;;13.00;99.90;;;;;;5072673;28;20452;-81
2023/04/15 08:33:39;;;;;;;7.83;7.30;;;13.00;99.90;;;;;;5095427;28;21000;-84
2023/04/15 08:36:08;;;;;;;8.27;7.82;;;13.00;99.90;;;;;;5097924;28;20455;-80
2023/04/15 08:38:37;;;;;;;7.87;7.57;;;13.10;99.90;;;;;;5095641;28;20727;-81
2023/04/15 08:41:11;;;;;;;7.87;7.50;;;13.20;99.90;;;;;;5094749;28;20518;-81
2023/04/15 08:43:47;;;;;;;8.20;7.80;;;13.20;99.90;;;;;;5091211;27;20567;-77
2023/04/15 08:46:16;;;;;;;7.17;6.97;;;13.20;99.90;;;;;;5085761;28;20479;-78
2023/04/15 08:48:47;;;;;;;7.40;7.20;;;13.20;99.90;;;;;;5083982;28;20534;-79
2023/04/15 08:51:16;;;;;;;7.97;7.67;;;13.30;99.90;;;;;;5086193;28;21455;-81
2023/04/15 08:53:46;;;;;;;7.67;7.37;;;13.30;99.90;;;;;;5093094;28;20437;-80
2023/04/15 08:56:16;;;;;;;7.87;7.57;;;13.30;99.90;;;;;;5097964;28;20536;-80
2023/04/15 08:58:44;;;;;;;7.47;7.00;;;13.40;99.90;;;;;;5098468;27;20437;-81
2023/04/15 09:01:13;;;;;;;7.60;7.33;;;13.40;99.90;;;;;;5090764;28;20515;-78
2023/04/15 09:03:42;;;;;;;6.90;6.57;;;13.50;99.90;;;;;;5086451;28;20475;-79
2023/04/15 09:06:11;;;;;;;6.77;6.50;;;13.50;99.90;;;;;;5090643;28;21277;-81
2023/04/15 09:08:40;;;;;;;7.50;7.10;;;13.60;99.90;;;;;;5086917;28;20449;-77
2023/04/15 09:11:10;;;;;;;7.60;7.40;;;13.70;99.90;;;;;;5078917;28;20530;-79
2023/04/15 09:13:38;;;;;;;6.50;6.30;;;13.70;99.90;;;;;;5094092;28;20441;-78
2023/04/15 09:16:06;;;;;;;7.00;6.70;;;13.80;99.90;;;;;;5096514;28;20494;-79
2023/04/15 09:18:36;;;;;;;6.23;5.90;;;13.80;99.90;;;;;;5091608;27;20456;-79
2023/04/15 09:21:07;;;;;;;5.87;5.67;;;14.00;99.90;;;;;;5095684;28;21373;-77
2023/04/15 09:23:36;;;;;;;6.83;6.43;;;14.20;99.90;;;;;;5096354;28;20478;-80
2023/04/15 09:26:05;;;;;;;6.00;5.70;;;14.20;99.90;;;;;;5092018;28;20624;-78
2023/04/15 09:28:41;;;;;;;6.90;6.40;;;14.30;99.90;;;;;;5092016;28;20453;-77
2023/04/15 09:31:10;;;;;;;5.57;5.47;;;14.40;98.50;;;;;;5093945;28;21131;-80
2023/04/15 09:33:55;;;;;;;5.90;5.50;;;14.50;99.10;;;;;;5091324;27;20817;-80
2023/04/15 09:36:23;;;;;;;5.60;5.50;;;14.50;98.10;;;;;;5092919;28;20468;-78
2023/04/15 09:38:56;;;;;;;6.03;5.73;;;14.50;97.80;;;;;;5091889;27;20505;-79
2023/04/15 09:41:24;;;;;;;5.77;5.57;;;14.60;93.70;;;;;;5089585;27;20545;-79
2023/04/15 09:43:53;;;;;;;5.70;5.40;;;14.60;91.50;;;;;;5083510;28;20447;-82
2023/04/15 09:46:41;;;;;;;5.57;5.27;;;14.70;86.10;;;;;;5093503;28;20446;-80
2023/04/15 09:49:10;;;;;;;5.30;5.00;;;14.70;95.90;;;;;;5095326;28;20435;-79
2023/04/15 09:51:38;;;;;;;5.43;5.13;;;14.80;85.70;;;;;;5097178;28;20480;-79
2023/04/15 09:54:07;;;;;;;5.37;5.17;;;15.00;88.40;;;;;;5096360;28;20496;-79
2023/04/15 09:56:37;;;;;;;5.43;5.10;;;15.10;89.60;;;;;;5099533;28;20497;-80
2023/04/15 09:59:06;;;;;;;5.27;5.17;;;15.20;87.10;;;;;;5078051;28;20480;-79
2023/04/15 10:01:35;;;;;;;5.47;5.20;;;15.10;91.20;;;;;;5073818;28;20820;-81
2023/04/15 10:04:04;;;;;;;6.87;6.30;;;15.20;89.40;;;;;;5096199;28;21095;-80
2023/04/15 10:06:34;;;;;;;7.77;7.13;;;15.20;89.60;;;;;;5097573;28;20484;-82
2023/04/15 10:09:03;;;;;;;5.60;5.40;;;15.20;85.50;;;;;;5095183;28;20454;-81
2023/04/15 10:11:33;;;;;;;5.20;5.00;;;15.20;89.20;;;;;;5092942;28;20452;-80
2023/04/15 10:14:01;;;;;;;4.90;4.80;;;15.20;86.90;;;;;;5098106;28;20478;-82
2023/04/15 10:16:33;;;;;;;5.30;5.00;;;15.30;83.20;;;;;;5100843;28;21165;-82
2023/04/15 10:19:03;;;;;;;5.00;4.83;;;15.30;76.60;;;;;;5100384;28;20460;-83
2023/04/15 10:21:31;;;;;;;5.07;4.87;;;15.20;76.90;;;;;;5100103;28;21088;-79
2023/04/15 10:24:01;;;;;;;5.30;5.00;;;15.20;77.00;;;;;;5095257;28;20443;-82
2023/04/15 10:26:30;;;;;;;4.90;4.70;;;15.10;74.60;;;;;;5095888;28;20263;-81
2023/04/15 10:29:00;;;;;;;5.17;4.83;;;15.20;72.70;;;;;;5089557;28;20457;-78
2023/04/15 10:31:29;;;;;;;5.30;5.00;;;15.20;75.20;;;;;;5096303;28;20514;-80
2023/04/15 10:34:02;;;;;;;4.47;4.37;;;15.20;66.80;;;;;;5094447;28;20241;-81
2023/04/15 10:36:31;;;;;;;5.10;4.70;;;15.20;68.60;;;;;;5097826;28;20869;-77
2023/04/15 10:39:00;;;;;;;4.60;4.40;;;15.20;68.90;;;;;;5099029;28;20482;-79
2023/04/15 10:41:30;;;;;;;4.90;4.70;;;15.20;67.30;;;;;;5100667;28;20450;-81
2023/04/15 10:44:01;;;;;;;5.53;5.00;;;15.10;65.30;;;;;;5097271;28;20483;-83
2023/04/15 10:46:36;;;;;;;5.50;5.10;;;15.10;70.00;;;;;;5088984;28;20481;-83
2023/04/15 10:49:11;;;;;;;5.23;5.00;;;15.10;75.80;;;;;;5091723;28;20458;-81
2023/04/15 10:51:41;;;;;;;5.20;5.00;;;15.10;66.90;;;;;;5090331;28;20496;-82
2023/04/15 10:54:13;;;;;;;5.27;5.07;;;15.20;65.10;;;;;;5099367;28;20450;-80
2023/04/15 10:56:43;;;;;;;5.30;5.10;;;15.10;65.00;;;;;;5097501;28;20465;-81
2023/04/15 10:59:11;;;;;;;5.20;4.90;;;15.10;65.40;;;;;;5091515;27;20968;-81
2023/04/15 11:01:56;;;;;;;5.37;5.17;;;15.10;66.50;;;;;;5089958;28;20461;-80
2023/04/15 11:04:54;;;;;;;5.57;5.37;;;15.10;69.10;;;;;;5092451;28;23763;-83
2023/04/15 11:07:37;;;;;;;5.77;5.57;;;15.20;71.00;;;;;;5075379;28;21150;-81
2023/04/15 11:10:35;;;;;;;6.53;6.07;;;15.10;90.90;;;;;;5091300;27;20457;-81
2023/04/15 11:13:05;;;;;;;7.33;6.83;;;15.20;79.30;;;;;;5094951;28;20537;-82
2023/04/15 11:15:35;;;;;;;7.60;7.03;;;15.20;80.40;;;;;;5094813;28;20486;-81
2023/04/15 11:18:10;;;;;;;7.17;6.87;;;15.10;82.40;;;;;;5091444;28;20536;-81
2023/04/15 11:20:43;;;;;;;7.33;6.90;;;15.00;86.40;;;;;;5091294;28;20454;-80
2023/04/15 11:23:12;;;;;;;7.33;6.80;;;14.90;83.60;;;;;;5092175;28;20459;-80
2023/04/15 11:25:42;;;;;;;8.17;7.47;;;14.80;85.30;;;;;;5095665;28;20565;-83
2023/04/15 11:28:12;;;;;;;6.97;6.57;;;14.60;81.30;;;;;;5088864;28;20551;-83
2023/04/15 11:30:41;;;;;;;7.53;7.13;;;14.60;82.00;;;;;;5092677;28;20461;-81
2023/04/15 11:33:12;;;;;;;8.20;6.83;;;14.70;84.00;;;;;;5091213;28;20501;-80
2023/04/15 11:35:42;;;;;;;6.87;6.57;;;14.90;85.30;;;;;;5091609;28;20543;-80
2023/04/15 11:38:13;;;;;;;6.87;6.57;;;15.00;84.70;;;;;;5093260;27;20521;-81
2023/04/15 11:40:42;;;;;;;7.30;6.90;;;15.10;80.40;;;;;;5091936;28;20456;-77
2023/04/15 11:43:15;;;;;;;6.60;6.30;;;15.00;77.50;;;;;;5093556;28;20536;-81
2023/04/15 11:45:53;;;;;;;6.60;6.30;;;15.10;76.40;;;;;;5093887;28;20478;-84
2023/04/15 11:48:23;;;;;;;6.10;5.83;;;15.10;75.50;;;;;;5095949;28;20490;-80
2023/04/15 11:50:57;;;;;;;6.17;5.77;;;15.20;76.60;;;;;;5094363;28;20494;-80
2023/04/15 11:53:37;;;;;;;7.00;6.50;;;15.40;80.20;;;;;;5098778;28;20453;-83
2023/04/15 11:56:06;;;;;;;6.50;6.00;;;15.50;83.20;;;;;;5096764;28;20208;-84
2023/04/15 11:58:36;;;;;;;6.70;6.40;;;15.60;83.80;;;;;;5096384;28;20541;-85
2023/04/15 12:01:06;;;;;;;6.53;6.23;;;15.70;84.40;;;;;;5099082;28;20450;-84
2023/04/15 12:03:38;;;;;;;6.93;6.32;;;15.80;84.80;;;;;;5096089;28;20443;-82
2023/04/15 12:06:15;;;;;;;6.03;5.73;;;15.70;85.10;;;;;;5096218;28;20227;-82
2023/04/15 12:09:08;;;;;;;6.22;5.82;;;15.80;79.70;;;;;;5094228;28;20443;-81
2023/04/15 12:11:42;;;;;;;6.13;5.80;;;15.80;77.60;;;;;;5091542;28;20532;-80
2023/04/15 12:14:13;;;;;;;6.03;5.83;;;15.90;78.90;;;;;;5090539;28;21203;-81
2023/04/15 12:16:44;;;;;;;6.00;5.60;;;15.90;79.70;;;;;;5090467;28;21225;-81
2023/04/15 12:19:22;;;;;;;6.57;6.00;;;15.90;92.00;;;;;;5092820;28;20488;-81
2023/04/15 12:21:52;;;;;;;6.00;5.80;;;15.90;80.10;;;;;;5092869;28;22427;-80
2023/04/15 12:24:22;;;;;;;7.20;6.60;;;16.00;82.00;;;;;;5096542;28;20439;-82
2023/04/15 12:26:52;;;;;;;6.80;6.40;;;16.10;84.40;;;;;;5079314;28;20478;-82
2023/04/15 12:29:24;;;;;;;7.30;6.90;;;16.10;85.80;;;;;;5090030;28;20452;-80
2023/04/15 12:31:54;;;;;;;7.23;6.80;;;16.10;87.50;;;;;;5091284;28;20277;-81
2023/04/15 12:34:30;;;;;;;6.70;6.40;;;16.20;87.60;;;;;;5087435;28;20819;-82
2023/04/15 12:37:02;;;;;;;7.63;7.13;;;16.20;88.20;;;;;;5093380;28;20864;-83
2023/04/15 12:39:40;;;;;;;7.70;7.27;;;16.10;81.50;;;;;;5089804;28;20531;-82
2023/04/15 12:42:09;;;;;;;6.83;6.53;;;15.90;76.30;;;;;;5095120;28;20450;-84
2023/04/15 12:44:39;;;;;;;6.83;6.43;;;15.80;74.30;;;;;;5094716;28;20461;-80
2023/04/15 12:47:09;;;;;;;6.37;6.10;;;15.80;74.60;;;;;;5093070;28;20469;-81
2023/04/15 12:49:38;;;;;;;7.10;5.80;;;15.70;64.50;;;;;;5094374;28;20442;-80
2023/04/15 12:52:07;;;;;;;6.83;6.50;;;15.80;65.40;;;;;;5087365;28;20493;-80
2023/04/15 12:54:36;;;;;;;6.87;6.37;;;15.80;66.10;;;;;;5091919;28;20450;-80
2023/04/15 12:57:04;;;;;;;6.10;5.80;;;15.90;62.10;;;;;;5092748;28;20573;-80
2023/04/15 12:59:34;;;;;;;6.30;5.90;;;15.80;61.40;;;;;;5094823;28;20444;-81
2023/04/15 13:02:03;;;;;;;6.30;5.80;;;15.80;61.50;;;;;;5091076;28;20450;-82
2023/04/15 13:04:31;;;;;;;6.53;6.23;;;15.90;62.70;;;;;;5098142;27;20204;-83